Liberty, Kentucky
Current Conditions -  °F | °C
As of 12:35 PM on Tuesday 21 Oct 2014 (Local Time) from KDVK Reporting Station
Overcast Overcast  
Wind Chill: 55°   Ceiling: 2900
Heat Index: 55°   Visibility: 10mi
Dew Point: 43°   Wind: 8mph
Humidity: 63%   Direction: 320°NW
Pressure: 30.07"   Gusts: NA
Location:  37.32°N, 84.94°W
Report Text: KDVK 211635Z AUTO 32007KT 10SM SCT023 BKN029 OVC060 13/06 A3007 RMK AO2
Loading
Personal Weather Stations






























Interactive Weather Map
Tropical Storm Tracking
New forecast layout! Learn more

10-Day Weather Forecast

Advertisements
Track Severe Weather on mobile